sensor_id;sensor_type;location;lat;lon;timestamp;temperature;humidity
3942;DHT22;1985;48.592;8.850;2023-03-14T00:01:51;9.50;99.90
3942;DHT22;1985;48.592;8.850;2023-03-14T00:04:17;9.50;99.90
3942;DHT22;1985;48.592;8.850;2023-03-14T00:06:43;9.50;99.90
3942;DHT22;1985;48.592;8.850;2023-03-14T00:09:09;9.50;99.90
3942;DHT22;1985;48.592;8.850;2023-03-14T00:11:34;9.60;99.90
3942;DHT22;1985;48.592;8.850;2023-03-14T00:14:00;9.60;99.90
3942;DHT22;1985;48.592;8.850;2023-03-14T00:16:26;9.60;99.90
3942;DHT22;1985;48.592;8.850;2023-03-14T00:18:52;9.60;99.90
3942;DHT22;1985;48.592;8.850;2023-03-14T00:21:18;9.60;99.90
3942;DHT22;1985;48.592;8.850;2023-03-14T00:23:44;9.60;99.90
3942;DHT22;1985;48.592;8.850;2023-03-14T00:26:13;9.70;99.90
3942;DHT22;1985;48.592;8.850;2023-03-14T00:28:39;9.60;99.90
3942;DHT22;1985;48.592;8.850;2023-03-14T00:31:07;9.70;99.90
3942;DHT22;1985;48.592;8.850;2023-03-14T00:33:34;9.70;99.90
3942;DHT22;1985;48.592;8.850;2023-03-14T00:36:07;9.80;99.90
3942;DHT22;1985;48.592;8.850;2023-03-14T00:38:37;9.80;99.90
3942;DHT22;1985;48.592;8.850;2023-03-14T00:41:11;9.80;99.90
3942;DHT22;1985;48.592;8.850;2023-03-14T00:43:37;9.80;99.90
3942;DHT22;1985;48.592;8.850;2023-03-14T00:46:03;9.80;99.90
3942;DHT22;1985;48.592;8.850;2023-03-14T00:48:30;9.80;99.90
3942;DHT22;1985;48.592;8.850;2023-03-14T00:50:55;9.80;99.90
3942;DHT22;1985;48.592;8.850;2023-03-14T00:53:21;9.70;99.90
3942;DHT22;1985;48.592;8.850;2023-03-14T00:55:47;9.70;99.90
3942;DHT22;1985;48.592;8.850;2023-03-14T00:58:15;9.60;99.90
3942;DHT22;1985;48.592;8.850;2023-03-14T01:00:41;9.50;99.90
3942;DHT22;1985;48.592;8.850;2023-03-14T01:03:08;9.50;99.90
3942;DHT22;1985;48.592;8.850;2023-03-14T01:05:34;9.40;99.90
3942;DHT22;1985;48.592;8.850;2023-03-14T01:08:00;9.40;99.90
3942;DHT22;1985;48.592;8.850;2023-03-14T01:10:25;9.50;99.90
3942;DHT22;1985;48.592;8.850;2023-03-14T01:12:51;9.50;99.90
3942;DHT22;1985;48.592;8.850;2023-03-14T01:15:17;9.50;99.90
3942;DHT22;1985;48.592;8.850;2023-03-14T01:17:43;9.50;99.90
3942;DHT22;1985;48.592;8.850;2023-03-14T01:20:11;9.50;99.90
3942;DHT22;1985;48.592;8.850;2023-03-14T01:22:38;9.50;99.90
3942;DHT22;1985;48.592;8.850;2023-03-14T01:25:10;9.60;99.90
3942;DHT22;1985;48.592;8.850;2023-03-14T01:27:36;9.50;99.90
3942;DHT22;1985;48.592;8.850;2023-03-14T01:30:02;9.40;99.90
3942;DHT22;1985;48.592;8.850;2023-03-14T01:32:29;9.30;99.90
3942;DHT22;1985;48.592;8.850;2023-03-14T01:34:54;9.30;99.90
3942;DHT22;1985;48.592;8.850;2023-03-14T01:37:20;9.20;99.90
3942;DHT22;1985;48.592;8.850;2023-03-14T01:39:48;9.20;99.90
3942;DHT22;1985;48.592;8.850;2023-03-14T01:42:15;9.20;99.90
3942;DHT22;1985;48.592;8.850;2023-03-14T01:47:51;9.30;99.90
3942;DHT22;1985;48.592;8.850;2023-03-14T01:50:17;9.20;99.90
3942;DHT22;1985;48.592;8.850;2023-03-14T01:52:46;9.20;99.90
3942;DHT22;1985;48.592;8.850;2023-03-14T01:55:16;9.20;99.90
3942;DHT22;1985;48.592;8.850;2023-03-14T01:57:53;9.20;99.90
3942;DHT22;1985;48.592;8.850;2023-03-14T02:00:22;9.20;99.90
3942;DHT22;1985;48.592;8.850;2023-03-14T02:02:54;9.20;99.90
3942;DHT22;1985;48.592;8.850;2023-03-14T02:05:26;9.20;99.90
3942;DHT22;1985;48.592;8.850;2023-03-14T02:07:58;9.20;99.90
3942;DHT22;1985;48.592;8.850;2023-03-14T02:10:27;9.10;99.90
3942;DHT22;1985;48.592;8.850;2023-03-14T02:12:55;9.10;99.90
3942;DHT22;1985;48.592;8.850;2023-03-14T02:15:22;9.10;99.90
3942;DHT22;1985;48.592;8.850;2023-03-14T02:17:48;9.10;99.90
3942;DHT22;1985;48.592;8.850;2023-03-14T02:22:58;9.10;99.90
3942;DHT22;1985;48.592;8.850;2023-03-14T02:25:46;9.10;99.90
3942;DHT22;1985;48.592;8.850;2023-03-14T02:28:14;9.10;99.90
3942;DHT22;1985;48.592;8.850;2023-03-14T02:30:40;9.20;99.90
3942;DHT22;1985;48.592;8.850;2023-03-14T02:33:09;9.10;99.90
3942;DHT22;1985;48.592;8.850;2023-03-14T02:35:41;9.00;99.90
3942;DHT22;1985;48.592;8.850;2023-03-14T02:40:48;9.00;99.90
3942;DHT22;1985;48.592;8.850;2023-03-14T02:43:13;8.90;99.90
3942;DHT22;1985;48.592;8.850;2023-03-14T02:45:44;8.90;99.90
3942;DHT22;1985;48.592;8.850;2023-03-14T02:48:34;8.90;99.90
3942;DHT22;1985;48.592;8.850;2023-03-14T02:51:01;8.90;99.90
3942;DHT22;1985;48.592;8.850;2023-03-14T02:53:30;8.90;99.90
3942;DHT22;1985;48.592;8.850;2023-03-14T02:55:57;8.90;99.90
3942;DHT22;1985;48.592;8.850;2023-03-14T02:58:23;9.00;99.90
3942;DHT22;1985;48.592;8.850;2023-03-14T03:00:49;9.00;99.90
3942;DHT22;1985;48.592;8.850;2023-03-14T03:03:15;9.00;99.90
3942;DHT22;1985;48.592;8.850;2023-03-14T03:05:40;9.00;99.90
3942;DHT22;1985;48.592;8.850;2023-03-14T03:08:08;9.00;99.90
3942;DHT22;1985;48.592;8.850;2023-03-14T03:10:33;9.00;99.90
3942;DHT22;1985;48.592;8.850;2023-03-14T03:12:59;8.90;99.90
3942;DHT22;1985;48.592;8.850;2023-03-14T03:15:25;9.00;99.90
3942;DHT22;1985;48.592;8.850;2023-03-14T03:17:51;9.00;99.90
3942;DHT22;1985;48.592;8.850;2023-03-14T03:20:17;9.00;99.90
3942;DHT22;1985;48.592;8.850;2023-03-14T03:22:42;9.10;99.90
3942;DHT22;1985;48.592;8.850;2023-03-14T03:25:09;9.00;99.90
3942;DHT22;1985;48.592;8.850;2023-03-14T03:27:36;9.00;99.90
3942;DHT22;1985;48.592;8.850;2023-03-14T03:30:03;9.00;99.90
3942;DHT22;1985;48.592;8.850;2023-03-14T03:32:29;9.00;99.90
3942;DHT22;1985;48.592;8.850;2023-03-14T03:34:55;9.00;99.90
3942;DHT22;1985;48.592;8.850;2023-03-14T03:37:20;9.00;99.90
3942;DHT22;1985;48.592;8.850;2023-03-14T03:39:46;9.00;99.90
3942;DHT22;1985;48.592;8.850;2023-03-14T03:42:11;9.00;99.90
3942;DHT22;1985;48.592;8.850;2023-03-14T03:44:37;9.00;99.90
3942;DHT22;1985;48.592;8.850;2023-03-14T03:47:03;8.90;99.90
3942;DHT22;1985;48.592;8.850;2023-03-14T03:49:32;8.90;99.90
3942;DHT22;1985;48.592;8.850;2023-03-14T03:51:58;8.90;99.90
3942;DHT22;1985;48.592;8.850;2023-03-14T03:54:24;8.90;99.90
3942;DHT22;1985;48.592;8.850;2023-03-14T03:56:49;8.80;99.90
3942;DHT22;1985;48.592;8.850;2023-03-14T03:59:15;8.80;99.90
3942;DHT22;1985;48.592;8.850;2023-03-14T04:01:40;8.90;99.90
3942;DHT22;1985;48.592;8.850;2023-03-14T04:04:06;8.90;99.90
3942;DHT22;1985;48.592;8.850;2023-03-14T04:06:32;8.90;99.90
3942;DHT22;1985;48.592;8.850;2023-03-14T04:08:58;8.90;99.90
3942;DHT22;1985;48.592;8.850;2023-03-14T04:11:24;8.90;99.90
3942;DHT22;1985;48.592;8.850;2023-03-14T04:13:49;8.90;99.90
3942;DHT22;1985;48.592;8.850;2023-03-14T04:16:18;8.90;99.90
3942;DHT22;1985;48.592;8.850;2023-03-14T04:18:44;8.90;99.90
3942;DHT22;1985;48.592;8.850;2023-03-14T04:21:10;8.90;99.90
3942;DHT22;1985;48.592;8.850;2023-03-14T04:23:35;8.90;99.90
3942;DHT22;1985;48.592;8.850;2023-03-14T04:26:02;8.90;99.90
3942;DHT22;1985;48.592;8.850;2023-03-14T04:28:27;8.90;99.90
3942;DHT22;1985;48.592;8.850;2023-03-14T04:30:53;8.90;99.90
3942;DHT22;1985;48.592;8.850;2023-03-14T04:33:19;9.00;99.90
3942;DHT22;1985;48.592;8.850;2023-03-14T04:35:45;8.90;99.90
3942;DHT22;1985;48.592;8.850;2023-03-14T04:38:11;8.90;99.90
3942;DHT22;1985;48.592;8.850;2023-03-14T04:40:39;9.00;99.90
3942;DHT22;1985;48.592;8.850;2023-03-14T04:43:05;8.90;99.90
3942;DHT22;1985;48.592;8.850;2023-03-14T04:45:31;8.90;99.90
3942;DHT22;1985;48.592;8.850;2023-03-14T04:47:57;8.90;99.90
3942;DHT22;1985;48.592;8.850;2023-03-14T04:50:22;8.90;99.90
3942;DHT22;1985;48.592;8.850;2023-03-14T04:52:48;8.90;99.90
3942;DHT22;1985;48.592;8.850;2023-03-14T04:55:14;8.80;99.90
3942;DHT22;1985;48.592;8.850;2023-03-14T04:57:39;8.90;99.90
3942;DHT22;1985;48.592;8.850;2023-03-14T05:00:05;8.90;99.90
3942;DHT22;1985;48.592;8.850;2023-03-14T05:02:32;8.90;99.90
3942;DHT22;1985;48.592;8.850;2023-03-14T05:04:58;8.90;99.90
3942;DHT22;1985;48.592;8.850;2023-03-14T05:07:23;8.90;99.90
3942;DHT22;1985;48.592;8.850;2023-03-14T05:09:49;8.90;99.90
3942;DHT22;1985;48.592;8.850;2023-03-14T05:12:14;8.90;99.90
3942;DHT22;1985;48.592;8.850;2023-03-14T05:14:40;8.90;99.90
3942;DHT22;1985;48.592;8.850;2023-03-14T05:17:06;9.00;99.90
3942;DHT22;1985;48.592;8.850;2023-03-14T05:19:31;9.00;99.90
3942;DHT22;1985;48.592;8.850;2023-03-14T05:21:57;8.90;99.90
3942;DHT22;1985;48.592;8.850;2023-03-14T05:24:23;8.90;99.90
3942;DHT22;1985;48.592;8.850;2023-03-14T05:26:48;8.90;99.90
3942;DHT22;1985;48.592;8.850;2023-03-14T05:29:14;8.90;99.90
3942;DHT22;1985;48.592;8.850;2023-03-14T05:31:39;9.00;99.90
3942;DHT22;1985;48.592;8.850;2023-03-14T05:34:05;9.00;99.90
3942;DHT22;1985;48.592;8.850;2023-03-14T05:36:31;9.00;99.90
3942;DHT22;1985;48.592;8.850;2023-03-14T05:38:56;9.00;99.90
3942;DHT22;1985;48.592;8.850;2023-03-14T05:41:22;9.00;99.90
3942;DHT22;1985;48.592;8.850;2023-03-14T05:43:47;8.90;99.90
3942;DHT22;1985;48.592;8.850;2023-03-14T05:46:13;9.00;99.90
3942;DHT22;1985;48.592;8.850;2023-03-14T05:48:39;9.00;99.90
3942;DHT22;1985;48.592;8.850;2023-03-14T05:51:04;9.00;99.90
3942;DHT22;1985;48.592;8.850;2023-03-14T05:53:30;9.10;99.90
3942;DHT22;1985;48.592;8.850;2023-03-14T05:55:56;9.10;99.90
3942;DHT22;1985;48.592;8.850;2023-03-14T05:58:22;9.00;99.90
3942;DHT22;1985;48.592;8.850;2023-03-14T06:00:48;9.00;99.90
3942;DHT22;1985;48.592;8.850;2023-03-14T06:03:14;9.00;99.90
3942;DHT22;1985;48.592;8.850;2023-03-14T06:05:39;8.90;99.90
3942;DHT22;1985;48.592;8.850;2023-03-14T06:08:05;9.00;99.90
3942;DHT22;1985;48.592;8.850;2023-03-14T06:10:30;8.90;99.90
3942;DHT22;1985;48.592;8.850;2023-03-14T06:12:56;8.90;99.90
3942;DHT22;1985;48.592;8.850;2023-03-14T06:15:22;8.90;99.90
3942;DHT22;1985;48.592;8.850;2023-03-14T06:17:47;8.90;99.90
3942;DHT22;1985;48.592;8.850;2023-03-14T06:20:13;9.00;99.90
3942;DHT22;1985;48.592;8.850;2023-03-14T06:22:39;9.00;99.90
3942;DHT22;1985;48.592;8.850;2023-03-14T06:25:06;9.10;99.90
3942;DHT22;1985;48.592;8.850;2023-03-14T06:27:31;9.10;99.90
3942;DHT22;1985;48.592;8.850;2023-03-14T06:29:57;9.10;99.90
3942;DHT22;1985;48.592;8.850;2023-03-14T06:32:23;9.10;99.90
3942;DHT22;1985;48.592;8.850;2023-03-14T06:34:48;9.10;99.90
3942;DHT22;1985;48.592;8.850;2023-03-14T06:37:14;9.10;99.90
3942;DHT22;1985;48.592;8.850;2023-03-14T06:39:40;9.20;99.90
3942;DHT22;1985;48.592;8.850;2023-03-14T06:42:05;9.20;99.90
3942;DHT22;1985;48.592;8.850;2023-03-14T06:44:31;9.20;99.90
3942;DHT22;1985;48.592;8.850;2023-03-14T06:46:57;9.20;99.90
3942;DHT22;1985;48.592;8.850;2023-03-14T06:49:22;9.20;99.90
3942;DHT22;1985;48.592;8.850;2023-03-14T06:51:48;9.20;99.90
3942;DHT22;1985;48.592;8.850;2023-03-14T06:54:14;9.20;99.90
3942;DHT22;1985;48.592;8.850;2023-03-14T06:56:39;9.20;99.90
3942;DHT22;1985;48.592;8.850;2023-03-14T06:59:05;9.20;99.90
3942;DHT22;1985;48.592;8.850;2023-03-14T07:01:31;9.30;99.90
3942;DHT22;1985;48.592;8.850;2023-03-14T07:04:01;9.30;99.90
3942;DHT22;1985;48.592;8.850;2023-03-14T07:06:26;9.30;99.90
3942;DHT22;1985;48.592;8.850;2023-03-14T07:08:54;9.40;99.90
3942;DHT22;1985;48.592;8.850;2023-03-14T07:11:20;9.50;99.90
3942;DHT22;1985;48.592;8.850;2023-03-14T07:13:46;9.50;99.90
3942;DHT22;1985;48.592;8.850;2023-03-14T07:16:12;9.60;99.90
3942;DHT22;1985;48.592;8.850;2023-03-14T07:18:38;9.70;99.90
3942;DHT22;1985;48.592;8.850;2023-03-14T07:21:07;9.70;99.90
3942;DHT22;1985;48.592;8.850;2023-03-14T07:23:34;9.70;99.90
3942;DHT22;1985;48.592;8.850;2023-03-14T07:26:00;9.60;99.90
3942;DHT22;1985;48.592;8.850;2023-03-14T07:28:26;9.60;99.90
3942;DHT22;1985;48.592;8.850;2023-03-14T07:30:53;9.70;99.90
3942;DHT22;1985;48.592;8.850;2023-03-14T07:33:19;9.80;99.90
3942;DHT22;1985;48.592;8.850;2023-03-14T07:35:47;9.90;99.90
3942;DHT22;1985;48.592;8.850;2023-03-14T07:38:13;10.10;99.90
3942;DHT22;1985;48.592;8.850;2023-03-14T07:40:39;10.20;99.90
3942;DHT22;1985;48.592;8.850;2023-03-14T07:43:05;10.20;99.90
3942;DHT22;1985;48.592;8.850;2023-03-14T07:45:30;10.30;99.90
3942;DHT22;1985;48.592;8.850;2023-03-14T07:47:56;10.40;99.90
3942;DHT22;1985;48.592;8.850;2023-03-14T07:50:26;10.40;99.90
3942;DHT22;1985;48.592;8.850;2023-03-14T07:52:52;10.50;99.90
3942;DHT22;1985;48.592;8.850;2023-03-14T07:55:17;10.60;99.90
3942;DHT22;1985;48.592;8.850;2023-03-14T07:57:43;10.70;99.90
3942;DHT22;1985;48.592;8.850;2023-03-14T08:00:09;10.80;99.90
3942;DHT22;1985;48.592;8.850;2023-03-14T08:02:36;10.80;99.90
3942;DHT22;1985;48.592;8.850;2023-03-14T08:05:02;10.70;99.90
3942;DHT22;1985;48.592;8.850;2023-03-14T08:07:28;10.80;99.90
3942;DHT22;1985;48.592;8.850;2023-03-14T08:09:54;10.80;99.90
3942;DHT22;1985;48.592;8.850;2023-03-14T08:12:19;10.80;99.90
3942;DHT22;1985;48.592;8.850;2023-03-14T08:14:45;10.80;99.90
3942;DHT22;1985;48.592;8.850;2023-03-14T08:17:10;10.80;99.90
3942;DHT22;1985;48.592;8.850;2023-03-14T08:19:36;10.80;99.90
3942;DHT22;1985;48.592;8.850;2023-03-14T08:22:02;10.80;99.90
3942;DHT22;1985;48.592;8.850;2023-03-14T08:24:28;10.80;99.90
3942;DHT22;1985;48.592;8.850;2023-03-14T08:26:54;10.80;99.90
3942;DHT22;1985;48.592;8.850;2023-03-14T08:29:19;10.90;99.90
3942;DHT22;1985;48.592;8.850;2023-03-14T08:31:45;10.70;99.90
3942;DHT22;1985;48.592;8.850;2023-03-14T08:34:11;10.60;99.90
3942;DHT22;1985;48.592;8.850;2023-03-14T08:36:36;10.40;99.90
3942;DHT22;1985;48.592;8.850;2023-03-14T08:39:02;10.30;99.90
3942;DHT22;1985;48.592;8.850;2023-03-14T08:41:29;10.30;99.90
3942;DHT22;1985;48.592;8.850;2023-03-14T08:43:55;10.10;99.90
3942;DHT22;1985;48.592;8.850;2023-03-14T08:46:20;10.00;99.90
3942;DHT22;1985;48.592;8.850;2023-03-14T08:48:46;10.00;99.90
3942;DHT22;1985;48.592;8.850;2023-03-14T08:51:13;9.90;99.90
3942;DHT22;1985;48.592;8.850;2023-03-14T08:53:40;10.10;99.90
3942;DHT22;1985;48.592;8.850;2023-03-14T08:56:06;10.20;99.90
3942;DHT22;1985;48.592;8.850;2023-03-14T08:58:33;10.20;99.90
3942;DHT22;1985;48.592;8.850;2023-03-14T09:00:59;10.20;99.90
3942;DHT22;1985;48.592;8.850;2023-03-14T09:03:25;10.30;99.90
3942;DHT22;1985;48.592;8.850;2023-03-14T09:05:51;10.30;99.90
3942;DHT22;1985;48.592;8.850;2023-03-14T09:08:17;10.40;99.90
3942;DHT22;1985;48.592;8.850;2023-03-14T09:10:43;10.50;99.90
3942;DHT22;1985;48.592;8.850;2023-03-14T09:13:09;10.50;99.90
3942;DHT22;1985;48.592;8.850;2023-03-14T09:15:35;10.60;99.90
3942;DHT22;1985;48.592;8.850;2023-03-14T09:18:01;10.60;99.90
3942;DHT22;1985;48.592;8.850;2023-03-14T09:20:27;10.60;99.90
3942;DHT22;1985;48.592;8.850;2023-03-14T09:22:53;10.60;99.90
3942;DHT22;1985;48.592;8.850;2023-03-14T09:25:18;10.70;99.90
3942;DHT22;1985;48.592;8.850;2023-03-14T09:27:44;10.80;99.90
3942;DHT22;1985;48.592;8.850;2023-03-14T09:30:10;10.90;99.90
3942;DHT22;1985;48.592;8.850;2023-03-14T09:32:36;11.00;99.90
3942;DHT22;1985;48.592;8.850;2023-03-14T09:35:01;11.30;99.90
3942;DHT22;1985;48.592;8.850;2023-03-14T09:37:27;11.50;99.90
3942;DHT22;1985;48.592;8.850;2023-03-14T09:39:53;11.10;99.90
3942;DHT22;1985;48.592;8.850;2023-03-14T09:42:22;10.90;99.90
3942;DHT22;1985;48.592;8.850;2023-03-14T09:45:04;11.00;99.90
3942;DHT22;1985;48.592;8.850;2023-03-14T09:47:33;11.30;99.90
3942;DHT22;1985;48.592;8.850;2023-03-14T09:50:00;11.50;99.90
3942;DHT22;1985;48.592;8.850;2023-03-14T09:52:36;11.50;99.90
3942;DHT22;1985;48.592;8.850;2023-03-14T09:55:16;11.80;99.90
3942;DHT22;1985;48.592;8.850;2023-03-14T09:57:44;12.20;99.90
3942;DHT22;1985;48.592;8.850;2023-03-14T10:02:42;12.40;99.90
3942;DHT22;1985;48.592;8.850;2023-03-14T10:05:18;12.40;99.90
3942;DHT22;1985;48.592;8.850;2023-03-14T10:07:45;12.50;99.90
3942;DHT22;1985;48.592;8.850;2023-03-14T10:10:15;12.50;99.90
3942;DHT22;1985;48.592;8.850;2023-03-14T10:12:46;12.70;99.90
3942;DHT22;1985;48.592;8.850;2023-03-14T10:15:13;12.50;99.90
3942;DHT22;1985;48.592;8.850;2023-03-14T10:17:50;12.20;99.90
3942;DHT22;1985;48.592;8.850;2023-03-14T10:20:38;12.30;99.90
3942;DHT22;1985;48.592;8.850;2023-03-14T10:23:06;12.30;99.90
3942;DHT22;1985;48.592;8.850;2023-03-14T10:25:34;12.90;99.90
3942;DHT22;1985;48.592;8.850;2023-03-14T10:28:02;13.50;99.90
3942;DHT22;1985;48.592;8.850;2023-03-14T10:30:45;13.80;99.90
3942;DHT22;1985;48.592;8.850;2023-03-14T10:35:43;13.80;99.90
3942;DHT22;1985;48.592;8.850;2023-03-14T10:38:14;13.30;99.90
3942;DHT22;1985;48.592;8.850;2023-03-14T10:40:42;12.90;99.90
3942;DHT22;1985;48.592;8.850;2023-03-14T10:43:15;12.40;99.90
3942;DHT22;1985;48.592;8.850;2023-03-14T10:45:43;12.10;99.90
3942;DHT22;1985;48.592;8.850;2023-03-14T10:50:53;11.60;99.90
3942;DHT22;1985;48.592;8.850;2023-03-14T10:53:19;11.40;99.90
3942;DHT22;1985;48.592;8.850;2023-03-14T10:55:45;11.10;99.90
3942;DHT22;1985;48.592;8.850;2023-03-14T10:58:28;10.90;99.90
3942;DHT22;1985;48.592;8.850;2023-03-14T11:03:33;10.70;99.90
3942;DHT22;1985;48.592;8.850;2023-03-14T11:06:23;10.70;99.90
3942;DHT22;1985;48.592;8.850;2023-03-14T11:11:47;12.00;99.90
3942;DHT22;1985;48.592;8.850;2023-03-14T11:14:24;11.60;99.90
3942;DHT22;1985;48.592;8.850;2023-03-14T11:17:02;10.60;99.90
3942;DHT22;1985;48.592;8.850;2023-03-14T11:22:49;9.80;99.90
3942;DHT22;1985;48.592;8.850;2023-03-14T11:25:25;9.70;99.90
3942;DHT22;1985;48.592;8.850;2023-03-14T11:31:04;9.70;99.90
3942;DHT22;1985;48.592;8.850;2023-03-14T11:36:30;9.90;99.90
3942;DHT22;1985;48.592;8.850;2023-03-14T11:38:58;10.20;99.90
3942;DHT22;1985;48.592;8.850;2023-03-14T11:41:32;10.20;99.90
3942;DHT22;1985;48.592;8.850;2023-03-14T11:44:04;10.20;99.90
3942;DHT22;1985;48.592;8.850;2023-03-14T11:46:42;10.10;99.90
3942;DHT22;1985;48.592;8.850;2023-03-14T11:49:42;10.00;99.90
3942;DHT22;1985;48.592;8.850;2023-03-14T11:55:10;9.60;99.90
3942;DHT22;1985;48.592;8.850;2023-03-14T11:57:39;9.50;99.90
3942;DHT22;1985;48.592;8.850;2023-03-14T12:00:21;9.40;99.90
3942;DHT22;1985;48.592;8.850;2023-03-14T12:10:51;9.60;99.90
3942;DHT22;1985;48.592;8.850;2023-03-14T12:13:18;10.30;99.90
3942;DHT22;1985;48.592;8.850;2023-03-14T12:15:55;10.60;99.90
3942;DHT22;1985;48.592;8.850;2023-03-14T12:18:30;11.10;99.90
3942;DHT22;1985;48.592;8.850;2023-03-14T12:20:59;11.90;99.90
3942;DHT22;1985;48.592;8.850;2023-03-14T12:23:27;12.20;99.90
3942;DHT22;1985;48.592;8.850;2023-03-14T12:28:33;15.60;99.90
3942;DHT22;1985;48.592;8.850;2023-03-14T12:41:48;15.20;84.20
3942;DHT22;1985;48.592;8.850;2023-03-14T12:47:00;13.40;84.60
3942;DHT22;1985;48.592;8.850;2023-03-14T12:49:40;12.10;87.90
3942;DHT22;1985;48.592;8.850;2023-03-14T12:52:13;10.90;91.00
3942;DHT22;1985;48.592;8.850;2023-03-14T12:54:54;10.80;91.00
3942;DHT22;1985;48.592;8.850;2023-03-14T12:57:36;10.30;89.00
3942;DHT22;1985;48.592;8.850;2023-03-14T13:00:21;10.00;89.40
3942;DHT22;1985;48.592;8.850;2023-03-14T13:02:48;9.90;90.20
3942;DHT22;1985;48.592;8.850;2023-03-14T13:05:23;9.80;90.70
3942;DHT22;1985;48.592;8.850;2023-03-14T13:17:46;9.70;92.10
3942;DHT22;1985;48.592;8.850;2023-03-14T13:20:24;9.50;92.30
3942;DHT22;1985;48.592;8.850;2023-03-14T13:22:52;9.50;92.90
3942;DHT22;1985;48.592;8.850;2023-03-14T13:25:17;9.50;91.80
3942;DHT22;1985;48.592;8.850;2023-03-14T13:27:47;9.40;90.90
3942;DHT22;1985;48.592;8.850;2023-03-14T13:30:20;9.50;91.60
3942;DHT22;1985;48.592;8.850;2023-03-14T13:32:48;9.40;92.60
3942;DHT22;1985;48.592;8.850;2023-03-14T13:35:29;9.20;91.70
3942;DHT22;1985;48.592;8.850;2023-03-14T13:38:00;9.20;92.30
3942;DHT22;1985;48.592;8.850;2023-03-14T13:40:32;9.00;91.90
3942;DHT22;1985;48.592;8.850;2023-03-14T13:43:04;8.70;90.90
3942;DHT22;1985;48.592;8.850;2023-03-14T13:45:30;8.60;92.00
3942;DHT22;1985;48.592;8.850;2023-03-14T13:47:55;8.40;91.70
3942;DHT22;1985;48.592;8.850;2023-03-14T13:50:21;8.40;92.30
3942;DHT22;1985;48.592;8.850;2023-03-14T13:52:46;8.50;91.60
3942;DHT22;1985;48.592;8.850;2023-03-14T13:55:19;8.60;91.20
3942;DHT22;1985;48.592;8.850;2023-03-14T13:57:48;8.50;90.70
3942;DHT22;1985;48.592;8.850;2023-03-14T14:00:19;8.40;90.60
3942;DHT22;1985;48.592;8.850;2023-03-14T14:02:45;8.30;90.10
3942;DHT22;1985;48.592;8.850;2023-03-14T14:05:12;8.40;91.70
3942;DHT22;1985;48.592;8.850;2023-03-14T14:07:39;8.60;92.20
3942;DHT22;1985;48.592;8.850;2023-03-14T14:10:05;8.80;90.70
3942;DHT22;1985;48.592;8.850;2023-03-14T14:12:43;8.80;90.30
3942;DHT22;1985;48.592;8.850;2023-03-14T14:15:27;9.10;90.50
3942;DHT22;1985;48.592;8.850;2023-03-14T14:18:00;9.30;88.80
3942;DHT22;1985;48.592;8.850;2023-03-14T14:20:33;9.20;88.70
3942;DHT22;1985;48.592;8.850;2023-03-14T14:23:11;9.20;89.10
3942;DHT22;1985;48.592;8.850;2023-03-14T14:25:37;9.40;90.20
3942;DHT22;1985;48.592;8.850;2023-03-14T14:28:26;9.60;90.00
3942;DHT22;1985;48.592;8.850;2023-03-14T14:33:26;9.20;86.10
3942;DHT22;1985;48.592;8.850;2023-03-14T14:36:00;9.50;86.80
3942;DHT22;1985;48.592;8.850;2023-03-14T14:38:26;9.40;83.30
3942;DHT22;1985;48.592;8.850;2023-03-14T14:40:59;9.30;81.40
3942;DHT22;1985;48.592;8.850;2023-03-14T14:43:27;9.70;80.50
3942;DHT22;1985;48.592;8.850;2023-03-14T14:45:54;10.10;78.80
3942;DHT22;1985;48.592;8.850;2023-03-14T14:48:26;10.40;74.50
3942;DHT22;1985;48.592;8.850;2023-03-14T14:51:00;10.20;75.10
3942;DHT22;1985;48.592;8.850;2023-03-14T14:55:54;9.60;74.70
3942;DHT22;1985;48.592;8.850;2023-03-14T14:58:34;9.10;74.60
3942;DHT22;1985;48.592;8.850;2023-03-14T15:01:22;9.10;78.00
3942;DHT22;1985;48.592;8.850;2023-03-14T15:03:50;9.10;80.00
3942;DHT22;1985;48.592;8.850;2023-03-14T15:06:17;8.90;80.60
3942;DHT22;1985;48.592;8.850;2023-03-14T15:08:45;8.90;80.30
3942;DHT22;1985;48.592;8.850;2023-03-14T15:11:16;9.00;80.50
3942;DHT22;1985;48.592;8.850;2023-03-14T15:13:43;9.00;81.00
3942;DHT22;1985;48.592;8.850;2023-03-14T15:16:11;8.80;82.20
3942;DHT22;1985;48.592;8.850;2023-03-14T15:18:37;8.70;83.80
3942;DHT22;1985;48.592;8.850;2023-03-14T15:21:02;8.70;82.10
3942;DHT22;1985;48.592;8.850;2023-03-14T15:23:28;8.60;80.90
3942;DHT22;1985;48.592;8.850;2023-03-14T15:25:54;8.70;83.60
3942;DHT22;1985;48.592;8.850;2023-03-14T15:28:24;8.80;81.90
3942;DHT22;1985;48.592;8.850;2023-03-14T15:30:52;8.80;81.10
3942;DHT22;1985;48.592;8.850;2023-03-14T15:33:19;8.60;83.20
3942;DHT22;1985;48.592;8.850;2023-03-14T15:35:45;8.50;82.10
3942;DHT22;1985;48.592;8.850;2023-03-14T15:38:12;8.50;81.30
3942;DHT22;1985;48.592;8.850;2023-03-14T15:40:38;8.60;80.90
3942;DHT22;1985;48.592;8.850;2023-03-14T15:43:04;8.50;82.20
3942;DHT22;1985;48.592;8.850;2023-03-14T15:45:30;8.40;81.80
3942;DHT22;1985;48.592;8.850;2023-03-14T15:47:56;8.40;81.10
3942;DHT22;1985;48.592;8.850;2023-03-14T15:50:22;8.30;82.10
3942;DHT22;1985;48.592;8.850;2023-03-14T15:52:47;8.40;83.10
3942;DHT22;1985;48.592;8.850;2023-03-14T15:55:13;8.30;81.20
3942;DHT22;1985;48.592;8.850;2023-03-14T15:57:43;8.30;83.00
3942;DHT22;1985;48.592;8.850;2023-03-14T16:00:12;8.30;83.30
3942;DHT22;1985;48.592;8.850;2023-03-14T16:02:39;8.40;85.60
3942;DHT22;1985;48.592;8.850;2023-03-14T16:05:10;8.40;85.90
3942;DHT22;1985;48.592;8.850;2023-03-14T16:07:36;8.50;85.70
3942;DHT22;1985;48.592;8.850;2023-03-14T16:10:02;8.50;85.40
3942;DHT22;1985;48.592;8.850;2023-03-14T16:12:28;8.40;84.70
3942;DHT22;1985;48.592;8.850;2023-03-14T16:14:54;8.20;85.10
3942;DHT22;1985;48.592;8.850;2023-03-14T16:17:20;8.10;86.50
3942;DHT22;1985;48.592;8.850;2023-03-14T16:19:45;8.10;87.20
3942;DHT22;1985;48.592;8.850;2023-03-14T16:22:12;8.10;88.00
3942;DHT22;1985;48.592;8.850;2023-03-14T16:24:37;8.00;87.80
3942;DHT22;1985;48.592;8.850;2023-03-14T16:27:03;8.00;88.00
3942;DHT22;1985;48.592;8.850;2023-03-14T16:29:29;7.90;88.80
3942;DHT22;1985;48.592;8.850;2023-03-14T16:31:55;7.70;90.10
3942;DHT22;1985;48.592;8.850;2023-03-14T16:34:21;7.60;91.30
3942;DHT22;1985;48.592;8.850;2023-03-14T16:36:46;7.40;92.40
3942;DHT22;1985;48.592;8.850;2023-03-14T16:39:12;7.20;93.40
3942;DHT22;1985;48.592;8.850;2023-03-14T16:41:38;7.20;94.50
3942;DHT22;1985;48.592;8.850;2023-03-14T16:44:04;7.00;95.70
3942;DHT22;1985;48.592;8.850;2023-03-14T16:46:29;6.70;96.80
3942;DHT22;1985;48.592;8.850;2023-03-14T16:48:55;6.60;98.60
3942;DHT22;1985;48.592;8.850;2023-03-14T16:51:22;6.60;99.60
3942;DHT22;1985;48.592;8.850;2023-03-14T16:53:48;6.50;99.90
3942;DHT22;1985;48.592;8.850;2023-03-14T16:56:14;6.30;99.90
3942;DHT22;1985;48.592;8.850;2023-03-14T16:58:40;6.10;99.90
3942;DHT22;1985;48.592;8.850;2023-03-14T17:01:10;6.10;99.90
3942;DHT22;1985;48.592;8.850;2023-03-14T17:03:47;5.90;99.90
3942;DHT22;1985;48.592;8.850;2023-03-14T17:06:24;5.90;99.90
3942;DHT22;1985;48.592;8.850;2023-03-14T17:08:51;5.90;99.90
3942;DHT22;1985;48.592;8.850;2023-03-14T17:11:17;5.90;99.90
3942;DHT22;1985;48.592;8.850;2023-03-14T17:13:43;5.80;99.90
3942;DHT22;1985;48.592;8.850;2023-03-14T17:16:09;5.70;99.90
3942;DHT22;1985;48.592;8.850;2023-03-14T17:18:35;5.60;99.90
3942;DHT22;1985;48.592;8.850;2023-03-14T17:21:01;5.50;99.90
3942;DHT22;1985;48.592;8.850;2023-03-14T17:23:29;5.40;99.90
3942;DHT22;1985;48.592;8.850;2023-03-14T17:25:55;5.20;99.90
3942;DHT22;1985;48.592;8.850;2023-03-14T17:28:21;5.10;99.90
3942;DHT22;1985;48.592;8.850;2023-03-14T17:30:48;5.10;99.90
3942;DHT22;1985;48.592;8.850;2023-03-14T17:33:14;5.10;99.90